Pagrindinis puslapis
METAR-TAF:

METAR-TAF

Oro uostai :

Grafenwöhr, Vokietija

platuma: 49-42N, ilguma: 011-57E, Aukštis: 415 m

Dabartinis oras

Ataskaita buvo paskelbta 3 valandos ir 2 minutes, ne 00:56 UTC
Vėjas 6 kt iš Pietų
Temperatūra 11°C
Drėgmė 50%
Slėgis 1012 hPa
Matomumas 10 km arba daugiau
Mažai debesys ne aukštis 21000 ft

METAR: ETIC 170056Z AUTO 17006KT 9999 FEW210 11/01 A2989 RMK AO2 SLP125 T01140008 $

Laikas: 04:58 (03:58 UTC)


TAF: trūkstamas

Orai ataskaitas ir orų prognozės (METAR, TAF).

turimą stotys yra geltonos ir raudonos taškus žemėlapyje.

Perkelti pele per norėdami pamatyti stoties vardą.

Tada spustelėkite, norėdami matyti oro stebėjimo ir prognozės.

Norėdami pakeisti žemėlapį: spustelėkite ant žalios mygtukų su juodo kryžiaus žemyn,; žalią mygtuką su brūkšneliu, jei norite nutolinti; arba žalių rodyklių gretimoms žemėlapius.


METAR-TAF: